Terminal Aerodrome Forecast
Issued by NWS

Home | Current Version | Previous Version | Text Only | Print | Product List | Glossary On
Versions: 1 2 3 4 5 6 7 8 9 10 11 12 13 14 15
000
FTUS46 KMTR 012300
TAFMRY
TAF
KMRY 012334Z 0200/0224 28006KT P6SM SKC
     FM020300 VRB03KT P6SM SKC
     FM021900 30007KT P6SM SKC=

USA.gov is the U.S. government's official web portal to all federal, state and local government web resources and services.